sensor_id;sensor_type;location;lat;lon;timestamp;temperature;humidity
80426;DHT22;69766;51.476;5.704;2023-07-31T00:00:48;16.10;99.90
80426;DHT22;69766;51.476;5.704;2023-07-31T00:03:13;16.10;99.90
80426;DHT22;69766;51.476;5.704;2023-07-31T00:05:39;16.10;99.90
80426;DHT22;69766;51.476;5.704;2023-07-31T00:08:05;16.10;99.90
80426;DHT22;69766;51.476;5.704;2023-07-31T00:10:30;16.10;99.90
80426;DHT22;69766;51.476;5.704;2023-07-31T00:12:56;16.10;99.90
80426;DHT22;69766;51.476;5.704;2023-07-31T00:15:22;16.10;99.90
80426;DHT22;69766;51.476;5.704;2023-07-31T00:17:47;16.10;99.90
80426;DHT22;69766;51.476;5.704;2023-07-31T00:20:13;16.10;99.90
80426;DHT22;69766;51.476;5.704;2023-07-31T00:22:39;16.10;99.90
80426;DHT22;69766;51.476;5.704;2023-07-31T00:25:04;16.10;99.90
80426;DHT22;69766;51.476;5.704;2023-07-31T00:27:32;16.10;99.90
80426;DHT22;69766;51.476;5.704;2023-07-31T00:29:57;16.10;99.90
80426;DHT22;69766;51.476;5.704;2023-07-31T00:32:23;16.10;99.90
80426;DHT22;69766;51.476;5.704;2023-07-31T00:34:49;16.10;99.90
80426;DHT22;69766;51.476;5.704;2023-07-31T00:37:14;16.10;99.90
80426;DHT22;69766;51.476;5.704;2023-07-31T00:39:40;16.20;99.90
80426;DHT22;69766;51.476;5.704;2023-07-31T00:42:06;16.10;99.90
80426;DHT22;69766;51.476;5.704;2023-07-31T00:44:32;16.10;99.90
80426;DHT22;69766;51.476;5.704;2023-07-31T00:46:58;16.10;99.90
80426;DHT22;69766;51.476;5.704;2023-07-31T00:49:26;16.10;99.90
80426;DHT22;69766;51.476;5.704;2023-07-31T00:51:52;16.10;99.90
80426;DHT22;69766;51.476;5.704;2023-07-31T00:54:18;16.10;99.90
80426;DHT22;69766;51.476;5.704;2023-07-31T00:56:45;16.10;99.90
80426;DHT22;69766;51.476;5.704;2023-07-31T00:59:13;16.20;99.90
80426;DHT22;69766;51.476;5.704;2023-07-31T01:01:40;16.10;99.90
80426;DHT22;69766;51.476;5.704;2023-07-31T01:04:06;16.20;99.90
80426;DHT22;69766;51.476;5.704;2023-07-31T01:06:42;16.20;99.90
80426;DHT22;69766;51.476;5.704;2023-07-31T01:12:14;16.20;99.90
80426;DHT22;69766;51.476;5.704;2023-07-31T01:14:40;16.10;99.90
80426;DHT22;69766;51.476;5.704;2023-07-31T01:17:05;16.10;99.90
80426;DHT22;69766;51.476;5.704;2023-07-31T01:19:31;16.20;99.90
80426;DHT22;69766;51.476;5.704;2023-07-31T01:27:59;16.10;99.90
80426;DHT22;69766;51.476;5.704;2023-07-31T01:30:28;16.10;99.90
80426;DHT22;69766;51.476;5.704;2023-07-31T01:32:59;16.10;99.90
80426;DHT22;69766;51.476;5.704;2023-07-31T01:35:27;16.10;99.90
80426;DHT22;69766;51.476;5.704;2023-07-31T01:37:53;16.10;99.90
80426;DHT22;69766;51.476;5.704;2023-07-31T01:40:19;16.10;99.90
80426;DHT22;69766;51.476;5.704;2023-07-31T01:42:45;16.10;99.90
80426;DHT22;69766;51.476;5.704;2023-07-31T01:45:11;16.10;99.90
80426;DHT22;69766;51.476;5.704;2023-07-31T01:47:37;16.10;99.90
80426;DHT22;69766;51.476;5.704;2023-07-31T01:50:02;16.10;99.90
80426;DHT22;69766;51.476;5.704;2023-07-31T01:52:28;16.10;99.90
80426;DHT22;69766;51.476;5.704;2023-07-31T01:54:55;16.10;99.90
80426;DHT22;69766;51.476;5.704;2023-07-31T01:57:21;16.10;99.90
80426;DHT22;69766;51.476;5.704;2023-07-31T01:59:46;16.10;99.90
80426;DHT22;69766;51.476;5.704;2023-07-31T02:02:13;16.10;99.90
80426;DHT22;69766;51.476;5.704;2023-07-31T02:04:38;16.00;99.90
80426;DHT22;69766;51.476;5.704;2023-07-31T02:07:06;16.00;99.90
80426;DHT22;69766;51.476;5.704;2023-07-31T02:09:32;16.00;99.90
80426;DHT22;69766;51.476;5.704;2023-07-31T02:11:57;16.00;99.90
80426;DHT22;69766;51.476;5.704;2023-07-31T02:14:23;16.00;99.90
80426;DHT22;69766;51.476;5.704;2023-07-31T02:16:49;16.00;99.90
80426;DHT22;69766;51.476;5.704;2023-07-31T02:19:15;16.00;99.90
80426;DHT22;69766;51.476;5.704;2023-07-31T02:21:40;16.00;99.90
80426;DHT22;69766;51.476;5.704;2023-07-31T02:24:06;16.00;99.90
80426;DHT22;69766;51.476;5.704;2023-07-31T02:26:32;16.00;99.90
80426;DHT22;69766;51.476;5.704;2023-07-31T02:28:57;16.00;99.90
80426;DHT22;69766;51.476;5.704;2023-07-31T02:31:23;16.00;99.90
80426;DHT22;69766;51.476;5.704;2023-07-31T02:33:48;16.00;99.90
80426;DHT22;69766;51.476;5.704;2023-07-31T02:36:14;16.00;99.90
80426;DHT22;69766;51.476;5.704;2023-07-31T02:38:40;16.00;99.90
80426;DHT22;69766;51.476;5.704;2023-07-31T02:41:06;16.00;99.90
80426;DHT22;69766;51.476;5.704;2023-07-31T02:43:31;16.00;99.90
80426;DHT22;69766;51.476;5.704;2023-07-31T02:45:57;16.00;99.90
80426;DHT22;69766;51.476;5.704;2023-07-31T02:48:23;16.00;99.90
80426;DHT22;69766;51.476;5.704;2023-07-31T02:50:49;16.00;99.90
80426;DHT22;69766;51.476;5.704;2023-07-31T02:53:14;16.00;99.90
80426;DHT22;69766;51.476;5.704;2023-07-31T02:55:41;16.00;99.90
80426;DHT22;69766;51.476;5.704;2023-07-31T02:58:06;16.00;99.90
80426;DHT22;69766;51.476;5.704;2023-07-31T03:00:32;16.00;99.90
80426;DHT22;69766;51.476;5.704;2023-07-31T03:02:58;16.00;99.90
80426;DHT22;69766;51.476;5.704;2023-07-31T03:05:23;16.00;99.90
80426;DHT22;69766;51.476;5.704;2023-07-31T03:07:49;16.00;99.90
80426;DHT22;69766;51.476;5.704;2023-07-31T03:10:15;16.00;99.90
80426;DHT22;69766;51.476;5.704;2023-07-31T03:12:40;16.00;99.90
80426;DHT22;69766;51.476;5.704;2023-07-31T03:15:07;16.10;99.90
80426;DHT22;69766;51.476;5.704;2023-07-31T03:17:32;16.10;99.90
80426;DHT22;69766;51.476;5.704;2023-07-31T03:19:58;16.10;99.90
80426;DHT22;69766;51.476;5.704;2023-07-31T03:22:24;16.10;99.90
80426;DHT22;69766;51.476;5.704;2023-07-31T03:24:49;16.10;99.90
80426;DHT22;69766;51.476;5.704;2023-07-31T03:27:15;16.10;99.90
80426;DHT22;69766;51.476;5.704;2023-07-31T03:29:41;16.10;99.90
80426;DHT22;69766;51.476;5.704;2023-07-31T03:32:06;16.10;99.90
80426;DHT22;69766;51.476;5.704;2023-07-31T03:34:32;16.10;99.90
80426;DHT22;69766;51.476;5.704;2023-07-31T03:36:58;16.10;99.90
80426;DHT22;69766;51.476;5.704;2023-07-31T03:39:24;16.20;99.90
80426;DHT22;69766;51.476;5.704;2023-07-31T03:41:49;16.20;99.90
80426;DHT22;69766;51.476;5.704;2023-07-31T03:44:15;16.20;99.90
80426;DHT22;69766;51.476;5.704;2023-07-31T03:46:41;16.20;99.90
80426;DHT22;69766;51.476;5.704;2023-07-31T03:49:06;16.20;99.90
80426;DHT22;69766;51.476;5.704;2023-07-31T03:51:32;16.20;99.90
80426;DHT22;69766;51.476;5.704;2023-07-31T03:53:58;16.30;99.90
80426;DHT22;69766;51.476;5.704;2023-07-31T03:56:23;16.30;99.90
80426;DHT22;69766;51.476;5.704;2023-07-31T03:58:49;16.30;99.90
80426;DHT22;69766;51.476;5.704;2023-07-31T04:01:15;16.30;99.90
80426;DHT22;69766;51.476;5.704;2023-07-31T04:03:40;16.30;99.90
80426;DHT22;69766;51.476;5.704;2023-07-31T04:06:06;16.30;99.90
80426;DHT22;69766;51.476;5.704;2023-07-31T04:08:32;16.30;99.90
80426;DHT22;69766;51.476;5.704;2023-07-31T04:10:58;16.30;99.90
80426;DHT22;69766;51.476;5.704;2023-07-31T04:13:24;16.40;99.90
80426;DHT22;69766;51.476;5.704;2023-07-31T04:15:50;16.40;99.90
80426;DHT22;69766;51.476;5.704;2023-07-31T04:18:16;16.40;99.90
80426;DHT22;69766;51.476;5.704;2023-07-31T04:20:42;16.40;99.90
80426;DHT22;69766;51.476;5.704;2023-07-31T04:23:07;16.40;99.90
80426;DHT22;69766;51.476;5.704;2023-07-31T04:25:33;16.40;99.90
80426;DHT22;69766;51.476;5.704;2023-07-31T04:28:00;16.40;99.90
80426;DHT22;69766;51.476;5.704;2023-07-31T04:30:26;16.40;99.90
80426;DHT22;69766;51.476;5.704;2023-07-31T04:32:51;16.40;99.90
80426;DHT22;69766;51.476;5.704;2023-07-31T04:35:17;16.50;99.90
80426;DHT22;69766;51.476;5.704;2023-07-31T04:37:43;16.60;99.90
80426;DHT22;69766;51.476;5.704;2023-07-31T04:40:10;16.60;99.90
80426;DHT22;69766;51.476;5.704;2023-07-31T04:42:36;16.60;99.90
80426;DHT22;69766;51.476;5.704;2023-07-31T04:45:01;16.60;99.90
80426;DHT22;69766;51.476;5.704;2023-07-31T04:47:27;16.70;99.90
80426;DHT22;69766;51.476;5.704;2023-07-31T04:49:53;16.70;99.90
80426;DHT22;69766;51.476;5.704;2023-07-31T04:52:18;16.60;99.90
80426;DHT22;69766;51.476;5.704;2023-07-31T04:54:44;16.70;99.90
80426;DHT22;69766;51.476;5.704;2023-07-31T04:57:09;16.60;99.90
80426;DHT22;69766;51.476;5.704;2023-07-31T04:59:35;16.70;99.90
80426;DHT22;69766;51.476;5.704;2023-07-31T05:02:02;16.70;99.90
80426;DHT22;69766;51.476;5.704;2023-07-31T05:04:27;16.70;99.90
80426;DHT22;69766;51.476;5.704;2023-07-31T05:06:53;16.80;99.90
80426;DHT22;69766;51.476;5.704;2023-07-31T05:09:19;16.70;99.90
80426;DHT22;69766;51.476;5.704;2023-07-31T05:11:44;16.80;99.90
80426;DHT22;69766;51.476;5.704;2023-07-31T05:14:10;16.80;99.90
80426;DHT22;69766;51.476;5.704;2023-07-31T05:16:36;16.80;99.90
80426;DHT22;69766;51.476;5.704;2023-07-31T05:19:01;16.70;99.90
80426;DHT22;69766;51.476;5.704;2023-07-31T05:21:27;16.70;99.90
80426;DHT22;69766;51.476;5.704;2023-07-31T05:23:53;16.70;99.90
80426;DHT22;69766;51.476;5.704;2023-07-31T05:26:18;16.60;99.90
80426;DHT22;69766;51.476;5.704;2023-07-31T05:28:44;16.60;99.90
80426;DHT22;69766;51.476;5.704;2023-07-31T05:31:10;16.60;99.90
80426;DHT22;69766;51.476;5.704;2023-07-31T05:33:35;16.60;99.90
80426;DHT22;69766;51.476;5.704;2023-07-31T05:36:01;16.50;99.90
80426;DHT22;69766;51.476;5.704;2023-07-31T05:38:26;16.40;99.90
80426;DHT22;69766;51.476;5.704;2023-07-31T05:40:52;16.40;99.90
80426;DHT22;69766;51.476;5.704;2023-07-31T05:43:18;16.40;99.90
80426;DHT22;69766;51.476;5.704;2023-07-31T05:45:43;16.30;99.90
80426;DHT22;69766;51.476;5.704;2023-07-31T05:48:09;16.40;99.90
80426;DHT22;69766;51.476;5.704;2023-07-31T05:50:35;16.40;99.90
80426;DHT22;69766;51.476;5.704;2023-07-31T05:53:00;16.40;99.90
80426;DHT22;69766;51.476;5.704;2023-07-31T05:55:26;16.40;99.90
80426;DHT22;69766;51.476;5.704;2023-07-31T05:57:53;16.30;99.90
80426;DHT22;69766;51.476;5.704;2023-07-31T06:00:18;16.30;99.90
80426;DHT22;69766;51.476;5.704;2023-07-31T06:02:44;16.20;99.90
80426;DHT22;69766;51.476;5.704;2023-07-31T06:05:10;16.30;99.90
80426;DHT22;69766;51.476;5.704;2023-07-31T06:07:36;16.30;99.90
80426;DHT22;69766;51.476;5.704;2023-07-31T06:10:01;16.20;99.90
80426;DHT22;69766;51.476;5.704;2023-07-31T06:12:29;16.20;99.90
80426;DHT22;69766;51.476;5.704;2023-07-31T06:14:54;16.20;99.90
80426;DHT22;69766;51.476;5.704;2023-07-31T06:17:20;16.20;99.90
80426;DHT22;69766;51.476;5.704;2023-07-31T06:19:47;16.20;99.90
80426;DHT22;69766;51.476;5.704;2023-07-31T06:22:12;16.20;99.90
80426;DHT22;69766;51.476;5.704;2023-07-31T06:24:38;16.30;99.90
80426;DHT22;69766;51.476;5.704;2023-07-31T06:27:04;16.20;99.90
80426;DHT22;69766;51.476;5.704;2023-07-31T06:29:31;16.20;99.90
80426;DHT22;69766;51.476;5.704;2023-07-31T06:31:57;16.20;99.90
80426;DHT22;69766;51.476;5.704;2023-07-31T06:34:23;16.20;99.90
80426;DHT22;69766;51.476;5.704;2023-07-31T06:36:48;16.20;99.90
80426;DHT22;69766;51.476;5.704;2023-07-31T06:39:14;16.20;99.90
80426;DHT22;69766;51.476;5.704;2023-07-31T06:41:39;16.20;99.90
80426;DHT22;69766;51.476;5.704;2023-07-31T06:44:05;16.20;99.90
80426;DHT22;69766;51.476;5.704;2023-07-31T06:46:31;16.20;99.90
80426;DHT22;69766;51.476;5.704;2023-07-31T06:48:56;16.20;99.90
80426;DHT22;69766;51.476;5.704;2023-07-31T06:51:22;16.30;99.90
80426;DHT22;69766;51.476;5.704;2023-07-31T06:53:48;16.30;99.90
80426;DHT22;69766;51.476;5.704;2023-07-31T06:56:13;16.30;99.90
80426;DHT22;69766;51.476;5.704;2023-07-31T06:58:39;16.30;99.90
80426;DHT22;69766;51.476;5.704;2023-07-31T07:01:05;16.40;99.90
80426;DHT22;69766;51.476;5.704;2023-07-31T07:03:30;16.40;99.90
80426;DHT22;69766;51.476;5.704;2023-07-31T07:05:56;16.40;99.90
80426;DHT22;69766;51.476;5.704;2023-07-31T07:08:22;16.50;99.90
80426;DHT22;69766;51.476;5.704;2023-07-31T07:10:47;16.40;99.90
80426;DHT22;69766;51.476;5.704;2023-07-31T07:13:13;16.40;99.90
80426;DHT22;69766;51.476;5.704;2023-07-31T07:15:39;16.30;99.90
80426;DHT22;69766;51.476;5.704;2023-07-31T07:18:05;16.30;99.90
80426;DHT22;69766;51.476;5.704;2023-07-31T07:20:30;16.40;99.90
80426;DHT22;69766;51.476;5.704;2023-07-31T07:22:56;16.40;99.90
80426;DHT22;69766;51.476;5.704;2023-07-31T07:25:22;16.50;99.90
80426;DHT22;69766;51.476;5.704;2023-07-31T07:27:47;16.60;99.90
80426;DHT22;69766;51.476;5.704;2023-07-31T07:30:13;16.60;99.90
80426;DHT22;69766;51.476;5.704;2023-07-31T07:32:40;16.60;99.90
80426;DHT22;69766;51.476;5.704;2023-07-31T07:35:06;16.60;99.90
80426;DHT22;69766;51.476;5.704;2023-07-31T07:37:32;16.50;99.90
80426;DHT22;69766;51.476;5.704;2023-07-31T07:39:58;16.50;99.90
80426;DHT22;69766;51.476;5.704;2023-07-31T07:42:23;16.50;99.90
80426;DHT22;69766;51.476;5.704;2023-07-31T07:44:49;16.50;99.90
80426;DHT22;69766;51.476;5.704;2023-07-31T07:47:15;16.60;99.90
80426;DHT22;69766;51.476;5.704;2023-07-31T07:49:40;16.60;99.90
80426;DHT22;69766;51.476;5.704;2023-07-31T07:52:06;16.60;99.90
80426;DHT22;69766;51.476;5.704;2023-07-31T07:54:32;16.50;99.90
80426;DHT22;69766;51.476;5.704;2023-07-31T07:56:57;16.40;99.90
80426;DHT22;69766;51.476;5.704;2023-07-31T07:59:23;16.40;99.90
80426;DHT22;69766;51.476;5.704;2023-07-31T08:01:49;16.40;99.90
80426;DHT22;69766;51.476;5.704;2023-07-31T08:04:14;16.50;99.90
80426;DHT22;69766;51.476;5.704;2023-07-31T08:06:40;16.40;99.90
80426;DHT22;69766;51.476;5.704;2023-07-31T08:09:06;16.50;99.90
80426;DHT22;69766;51.476;5.704;2023-07-31T08:11:35;16.50;99.90
80426;DHT22;69766;51.476;5.704;2023-07-31T08:14:22;16.40;99.90
80426;DHT22;69766;51.476;5.704;2023-07-31T08:16:48;16.50;99.90
80426;DHT22;69766;51.476;5.704;2023-07-31T08:19:14;16.50;99.90
80426;DHT22;69766;51.476;5.704;2023-07-31T08:22:00;16.50;99.90
80426;DHT22;69766;51.476;5.704;2023-07-31T08:24:25;16.60;99.90
80426;DHT22;69766;51.476;5.704;2023-07-31T08:26:51;16.60;99.90
80426;DHT22;69766;51.476;5.704;2023-07-31T08:29:16;16.60;99.90
80426;DHT22;69766;51.476;5.704;2023-07-31T08:31:42;16.70;99.90
80426;DHT22;69766;51.476;5.704;2023-07-31T08:34:08;16.60;99.90
80426;DHT22;69766;51.476;5.704;2023-07-31T08:36:54;16.60;99.90
80426;DHT22;69766;51.476;5.704;2023-07-31T08:39:19;16.50;99.90
80426;DHT22;69766;51.476;5.704;2023-07-31T08:41:45;16.50;99.90
80426;DHT22;69766;51.476;5.704;2023-07-31T08:44:12;16.60;99.90
80426;DHT22;69766;51.476;5.704;2023-07-31T08:46:39;16.60;99.90
80426;DHT22;69766;51.476;5.704;2023-07-31T08:49:06;16.60;99.90
80426;DHT22;69766;51.476;5.704;2023-07-31T08:51:34;16.60;99.90
80426;DHT22;69766;51.476;5.704;2023-07-31T08:54:01;16.60;99.90
80426;DHT22;69766;51.476;5.704;2023-07-31T08:56:27;16.60;99.90
80426;DHT22;69766;51.476;5.704;2023-07-31T08:58:54;16.60;99.90
80426;DHT22;69766;51.476;5.704;2023-07-31T09:01:21;16.60;99.90
80426;DHT22;69766;51.476;5.704;2023-07-31T09:03:47;16.60;99.90
80426;DHT22;69766;51.476;5.704;2023-07-31T09:06:15;16.60;99.90
80426;DHT22;69766;51.476;5.704;2023-07-31T09:08:43;16.60;99.90
80426;DHT22;69766;51.476;5.704;2023-07-31T09:11:09;16.60;99.90
80426;DHT22;69766;51.476;5.704;2023-07-31T09:13:35;16.60;99.90
80426;DHT22;69766;51.476;5.704;2023-07-31T09:16:00;16.70;99.90
80426;DHT22;69766;51.476;5.704;2023-07-31T09:18:26;16.80;99.90
80426;DHT22;69766;51.476;5.704;2023-07-31T09:21:05;16.90;99.90
80426;DHT22;69766;51.476;5.704;2023-07-31T09:23:45;17.00;99.90
80426;DHT22;69766;51.476;5.704;2023-07-31T09:26:11;17.00;99.90
80426;DHT22;69766;51.476;5.704;2023-07-31T09:28:53;17.10;99.90
80426;DHT22;69766;51.476;5.704;2023-07-31T09:31:32;17.10;99.90
80426;DHT22;69766;51.476;5.704;2023-07-31T09:33:57;17.20;99.90
80426;DHT22;69766;51.476;5.704;2023-07-31T09:36:23;17.20;99.90
80426;DHT22;69766;51.476;5.704;2023-07-31T09:38:49;17.20;99.90
80426;DHT22;69766;51.476;5.704;2023-07-31T09:41:14;17.30;99.90
80426;DHT22;69766;51.476;5.704;2023-07-31T09:43:40;17.30;99.90
80426;DHT22;69766;51.476;5.704;2023-07-31T09:46:13;17.40;99.90
80426;DHT22;69766;51.476;5.704;2023-07-31T09:48:39;17.60;99.90
80426;DHT22;69766;51.476;5.704;2023-07-31T09:51:05;17.70;99.90
80426;DHT22;69766;51.476;5.704;2023-07-31T09:53:50;17.60;99.90
80426;DHT22;69766;51.476;5.704;2023-07-31T09:56:17;17.60;99.90
80426;DHT22;69766;51.476;5.704;2023-07-31T09:58:43;17.70;99.90
80426;DHT22;69766;51.476;5.704;2023-07-31T10:01:09;17.60;99.90
80426;DHT22;69766;51.476;5.704;2023-07-31T10:03:36;17.60;99.90
80426;DHT22;69766;51.476;5.704;2023-07-31T10:06:02;17.60;99.90
80426;DHT22;69766;51.476;5.704;2023-07-31T10:08:32;17.70;99.90
80426;DHT22;69766;51.476;5.704;2023-07-31T10:11:00;17.80;99.90
80426;DHT22;69766;51.476;5.704;2023-07-31T10:13:28;17.90;99.90
80426;DHT22;69766;51.476;5.704;2023-07-31T10:15:58;17.70;99.90
80426;DHT22;69766;51.476;5.704;2023-07-31T10:18:25;17.70;99.90
80426;DHT22;69766;51.476;5.704;2023-07-31T10:20:52;17.60;99.90
80426;DHT22;69766;51.476;5.704;2023-07-31T10:23:18;17.60;99.90
80426;DHT22;69766;51.476;5.704;2023-07-31T10:25:45;17.70;99.90
80426;DHT22;69766;51.476;5.704;2023-07-31T10:28:12;17.70;99.90
80426;DHT22;69766;51.476;5.704;2023-07-31T10:30:39;17.80;99.90
80426;DHT22;69766;51.476;5.704;2023-07-31T10:33:05;17.80;99.90
80426;DHT22;69766;51.476;5.704;2023-07-31T10:35:31;17.90;99.90
80426;DHT22;69766;51.476;5.704;2023-07-31T10:38:09;17.90;99.90
80426;DHT22;69766;51.476;5.704;2023-07-31T10:40:36;17.90;99.90
80426;DHT22;69766;51.476;5.704;2023-07-31T10:43:03;18.00;99.90
80426;DHT22;69766;51.476;5.704;2023-07-31T10:45:36;18.00;99.90
80426;DHT22;69766;51.476;5.704;2023-07-31T10:48:04;18.10;99.90
80426;DHT22;69766;51.476;5.704;2023-07-31T10:50:36;18.10;99.90
80426;DHT22;69766;51.476;5.704;2023-07-31T10:53:02;18.10;99.90
80426;DHT22;69766;51.476;5.704;2023-07-31T10:55:42;18.10;99.90
80426;DHT22;69766;51.476;5.704;2023-07-31T10:58:11;18.20;99.90
80426;DHT22;69766;51.476;5.704;2023-07-31T11:00:38;18.30;99.90
80426;DHT22;69766;51.476;5.704;2023-07-31T11:03:04;18.50;99.90
80426;DHT22;69766;51.476;5.704;2023-07-31T11:08:22;18.80;99.90
80426;DHT22;69766;51.476;5.704;2023-07-31T11:10:50;18.80;99.90
80426;DHT22;69766;51.476;5.704;2023-07-31T11:13:16;18.90;99.90
80426;DHT22;69766;51.476;5.704;2023-07-31T11:15:42;19.10;99.90
80426;DHT22;69766;51.476;5.704;2023-07-31T11:18:08;19.00;99.90
80426;DHT22;69766;51.476;5.704;2023-07-31T11:20:37;19.10;99.90
80426;DHT22;69766;51.476;5.704;2023-07-31T11:23:05;19.20;99.90
80426;DHT22;69766;51.476;5.704;2023-07-31T11:25:32;19.50;99.90
80426;DHT22;69766;51.476;5.704;2023-07-31T11:28:05;19.40;99.90
80426;DHT22;69766;51.476;5.704;2023-07-31T11:30:32;19.40;99.90
80426;DHT22;69766;51.476;5.704;2023-07-31T11:32:57;19.20;99.90
80426;DHT22;69766;51.476;5.704;2023-07-31T11:35:23;19.20;99.90
80426;DHT22;69766;51.476;5.704;2023-07-31T11:37:49;19.20;99.90
80426;DHT22;69766;51.476;5.704;2023-07-31T11:40:15;19.20;99.90
80426;DHT22;69766;51.476;5.704;2023-07-31T11:42:41;19.30;99.90
80426;DHT22;69766;51.476;5.704;2023-07-31T11:45:08;19.40;99.90
80426;DHT22;69766;51.476;5.704;2023-07-31T11:47:35;19.50;99.90
80426;DHT22;69766;51.476;5.704;2023-07-31T11:50:06;19.60;99.90
80426;DHT22;69766;51.476;5.704;2023-07-31T11:52:42;19.60;99.90
80426;DHT22;69766;51.476;5.704;2023-07-31T11:55:09;19.80;99.90
80426;DHT22;69766;51.476;5.704;2023-07-31T11:57:39;19.90;99.90
80426;DHT22;69766;51.476;5.704;2023-07-31T12:00:06;19.50;99.90
80426;DHT22;69766;51.476;5.704;2023-07-31T12:02:33;19.20;99.90
80426;DHT22;69766;51.476;5.704;2023-07-31T12:04:59;18.90;99.90
80426;DHT22;69766;51.476;5.704;2023-07-31T12:07:25;18.90;99.90
80426;DHT22;69766;51.476;5.704;2023-07-31T12:09:54;18.80;99.90
80426;DHT22;69766;51.476;5.704;2023-07-31T12:12:21;18.80;99.90
80426;DHT22;69766;51.476;5.704;2023-07-31T12:14:47;18.90;99.90
80426;DHT22;69766;51.476;5.704;2023-07-31T12:17:14;18.80;99.90
80426;DHT22;69766;51.476;5.704;2023-07-31T12:19:40;18.80;99.90
80426;DHT22;69766;51.476;5.704;2023-07-31T12:22:15;18.70;99.90
80426;DHT22;69766;51.476;5.704;2023-07-31T12:24:43;18.50;99.90
80426;DHT22;69766;51.476;5.704;2023-07-31T12:27:15;18.50;99.90
80426;DHT22;69766;51.476;5.704;2023-07-31T12:29:43;18.50;99.90
80426;DHT22;69766;51.476;5.704;2023-07-31T12:32:24;18.60;99.90
80426;DHT22;69766;51.476;5.704;2023-07-31T12:34:51;18.60;99.90
80426;DHT22;69766;51.476;5.704;2023-07-31T12:37:17;18.70;99.90
80426;DHT22;69766;51.476;5.704;2023-07-31T12:39:43;18.80;99.90
80426;DHT22;69766;51.476;5.704;2023-07-31T12:42:09;18.80;99.90
80426;DHT22;69766;51.476;5.704;2023-07-31T12:44:34;18.90;99.90
80426;DHT22;69766;51.476;5.704;2023-07-31T12:47:00;18.70;99.90
80426;DHT22;69766;51.476;5.704;2023-07-31T12:49:26;18.70;99.90
80426;DHT22;69766;51.476;5.704;2023-07-31T12:51:51;18.80;99.90
80426;DHT22;69766;51.476;5.704;2023-07-31T12:54:19;18.80;99.90
80426;DHT22;69766;51.476;5.704;2023-07-31T12:56:45;18.90;99.90
80426;DHT22;69766;51.476;5.704;2023-07-31T12:59:10;18.90;99.90
80426;DHT22;69766;51.476;5.704;2023-07-31T13:01:36;18.80;99.90
80426;DHT22;69766;51.476;5.704;2023-07-31T13:04:02;19.00;99.90
80426;DHT22;69766;51.476;5.704;2023-07-31T13:06:28;19.10;99.90
80426;DHT22;69766;51.476;5.704;2023-07-31T13:08:53;19.20;99.90
80426;DHT22;69766;51.476;5.704;2023-07-31T13:11:19;19.20;99.90
80426;DHT22;69766;51.476;5.704;2023-07-31T13:13:45;19.20;99.90
80426;DHT22;69766;51.476;5.704;2023-07-31T13:16:11;19.20;99.90
80426;DHT22;69766;51.476;5.704;2023-07-31T13:18:36;19.20;99.90
80426;DHT22;69766;51.476;5.704;2023-07-31T13:21:02;19.10;99.90
80426;DHT22;69766;51.476;5.704;2023-07-31T13:23:27;19.30;99.90
80426;DHT22;69766;51.476;5.704;2023-07-31T13:25:53;19.30;99.90
80426;DHT22;69766;51.476;5.704;2023-07-31T13:28:19;19.40;99.90
80426;DHT22;69766;51.476;5.704;2023-07-31T13:30:44;19.40;99.90
80426;DHT22;69766;51.476;5.704;2023-07-31T13:33:11;19.60;99.90
80426;DHT22;69766;51.476;5.704;2023-07-31T13:35:37;19.70;99.90
80426;DHT22;69766;51.476;5.704;2023-07-31T13:38:02;19.60;99.90
80426;DHT22;69766;51.476;5.704;2023-07-31T13:40:28;19.60;99.90
80426;DHT22;69766;51.476;5.704;2023-07-31T13:42:54;19.60;99.90
80426;DHT22;69766;51.476;5.704;2023-07-31T13:45:21;19.70;99.90
80426;DHT22;69766;51.476;5.704;2023-07-31T13:47:46;19.70;99.90
80426;DHT22;69766;51.476;5.704;2023-07-31T13:50:12;19.80;99.90
80426;DHT22;69766;51.476;5.704;2023-07-31T13:52:38;19.80;99.90
80426;DHT22;69766;51.476;5.704;2023-07-31T13:55:04;19.70;99.90
80426;DHT22;69766;51.476;5.704;2023-07-31T13:57:29;19.70;99.90
80426;DHT22;69766;51.476;5.704;2023-07-31T13:59:55;19.60;99.90
80426;DHT22;69766;51.476;5.704;2023-07-31T14:02:21;19.40;99.90
80426;DHT22;69766;51.476;5.704;2023-07-31T14:04:46;19.30;99.90
80426;DHT22;69766;51.476;5.704;2023-07-31T14:07:12;19.30;99.90
80426;DHT22;69766;51.476;5.704;2023-07-31T14:09:38;19.20;99.90
80426;DHT22;69766;51.476;5.704;2023-07-31T14:12:03;19.00;99.90
80426;DHT22;69766;51.476;5.704;2023-07-31T14:14:29;18.80;99.90
80426;DHT22;69766;51.476;5.704;2023-07-31T14:16:55;18.60;99.90
80426;DHT22;69766;51.476;5.704;2023-07-31T14:19:21;18.40;99.90
80426;DHT22;69766;51.476;5.704;2023-07-31T14:21:46;18.30;99.90
80426;DHT22;69766;51.476;5.704;2023-07-31T14:24:12;18.30;99.90
80426;DHT22;69766;51.476;5.704;2023-07-31T14:26:38;18.20;99.90
80426;DHT22;69766;51.476;5.704;2023-07-31T14:29:03;18.10;99.90
80426;DHT22;69766;51.476;5.704;2023-07-31T14:31:29;18.10;99.90
80426;DHT22;69766;51.476;5.704;2023-07-31T14:33:55;18.10;99.90
80426;DHT22;69766;51.476;5.704;2023-07-31T14:36:20;18.10;99.90
80426;DHT22;69766;51.476;5.704;2023-07-31T14:38:46;18.20;99.90
80426;DHT22;69766;51.476;5.704;2023-07-31T14:41:12;18.30;99.90
80426;DHT22;69766;51.476;5.704;2023-07-31T14:43:37;18.30;99.90
80426;DHT22;69766;51.476;5.704;2023-07-31T14:46:03;18.30;99.90
80426;DHT22;69766;51.476;5.704;2023-07-31T14:48:28;18.40;99.90
80426;DHT22;69766;51.476;5.704;2023-07-31T14:50:54;18.30;99.90
80426;DHT22;69766;51.476;5.704;2023-07-31T14:53:21;18.30;99.90
80426;DHT22;69766;51.476;5.704;2023-07-31T14:55:47;18.40;99.90
80426;DHT22;69766;51.476;5.704;2023-07-31T14:58:12;18.30;99.90
80426;DHT22;69766;51.476;5.704;2023-07-31T15:00:39;18.30;99.90
80426;DHT22;69766;51.476;5.704;2023-07-31T15:03:05;18.20;99.90
80426;DHT22;69766;51.476;5.704;2023-07-31T15:05:30;18.20;99.90
80426;DHT22;69766;51.476;5.704;2023-07-31T15:07:56;18.20;99.90
80426;DHT22;69766;51.476;5.704;2023-07-31T15:10:22;18.20;99.90
80426;DHT22;69766;51.476;5.704;2023-07-31T15:12:48;18.10;99.90
80426;DHT22;69766;51.476;5.704;2023-07-31T15:15:15;18.10;99.90
80426;DHT22;69766;51.476;5.704;2023-07-31T15:17:41;18.10;99.90
80426;DHT22;69766;51.476;5.704;2023-07-31T15:20:07;18.10;99.90
80426;DHT22;69766;51.476;5.704;2023-07-31T15:22:33;18.20;99.90
80426;DHT22;69766;51.476;5.704;2023-07-31T15:24:58;18.10;99.90
80426;DHT22;69766;51.476;5.704;2023-07-31T15:27:24;18.10;99.90
80426;DHT22;69766;51.476;5.704;2023-07-31T15:29:50;18.10;99.90
80426;DHT22;69766;51.476;5.704;2023-07-31T15:32:18;18.00;99.90
80426;DHT22;69766;51.476;5.704;2023-07-31T15:34:44;18.00;99.90
80426;DHT22;69766;51.476;5.704;2023-07-31T15:37:10;18.00;99.90